Time;durP1;ratioP1;P1;durP2;ratioP2;P2;SDS_P1;SDS_P2;PMS_P1;PMS_P2;Temp;Humidity;BMP_temperature;BMP_pressure;BME280_temperature;BME280_humidity;BME280_pressure;Samples;Min_cycle;Max_cycle;Signal;HPM_P1;HPM_P2
2023/09/09 00:01:29;;;;;;;11.80;5.78;;;;;;;16.37;100.00;97867.69;5140556;27;20027;-78
2023/09/09 00:03:55;;;;;;;10.63;5.97;;;;;;;16.39;100.00;97868.44;5128834;27;20034;-77
2023/09/09 00:06:21;;;;;;;9.05;5.47;;;;;;;16.44;100.00;97883.28;5138799;27;20018;-77
2023/09/09 00:08:47;;;;;;;11.50;5.78;;;;;;;16.35;100.00;97875.06;5149547;27;20027;-77
2023/09/09 00:11:12;;;;;;;11.88;6.20;;;;;;;16.25;100.00;97869.53;5158197;27;20030;-78
2023/09/09 00:13:38;;;;;;;8.30;6.07;;;;;;;16.17;100.00;97866.59;5122350;27;20109;-77
2023/09/09 00:16:04;;;;;;;10.48;5.72;;;;;;;16.14;100.00;97872.22;5133143;27;20038;-77
2023/09/09 00:18:30;;;;;;;14.13;6.07;;;;;;;15.98;100.00;97867.19;5139823;27;20395;-78
2023/09/09 00:20:56;;;;;;;9.38;5.85;;;;;;;15.98;100.00;97869.00;5132616;27;20048;-78
2023/09/09 00:23:21;;;;;;;10.55;7.00;;;;;;;15.98;100.00;97869.88;5134214;27;20712;-78
2023/09/09 00:25:48;;;;;;;12.98;7.30;;;;;;;15.96;100.00;97871.00;5139299;27;20027;-78
2023/09/09 00:28:14;;;;;;;10.43;6.20;;;;;;;15.92;100.00;97873.06;5116736;27;20088;-77
2023/09/09 00:30:40;;;;;;;8.68;5.70;;;;;;;15.88;100.00;97868.88;5133927;27;20019;-78
2023/09/09 00:33:09;;;;;;;12.70;6.65;;;;;;;15.80;100.00;97874.03;5121663;27;20034;-78
2023/09/09 00:35:37;;;;;;;11.63;6.75;;;;;;;15.75;100.00;97878.88;5128266;27;20061;-79
2023/09/09 00:38:03;;;;;;;10.73;7.18;;;;;;;15.68;100.00;97866.88;5163639;27;20086;-77
2023/09/09 00:40:28;;;;;;;18.88;7.78;;;;;;;15.63;100.00;97871.75;5160374;27;20053;-78
2023/09/09 00:42:54;;;;;;;9.82;7.22;;;;;;;15.60;100.00;97869.28;5136421;27;20515;-78
2023/09/09 00:45:19;;;;;;;12.48;7.38;;;;;;;15.55;100.00;97868.78;5153486;27;20024;-78
2023/09/09 00:47:45;;;;;;;12.20;6.15;;;;;;;15.60;100.00;97875.53;5124017;27;20027;-78
2023/09/09 00:50:13;;;;;;;11.85;7.65;;;;;;;15.58;100.00;97868.56;5142667;27;20027;-77
2023/09/09 00:52:40;;;;;;;14.65;7.22;;;;;;;15.61;100.00;97876.41;5117833;27;20057;-77
2023/09/09 00:55:10;;;;;;;13.50;8.57;;;;;;;15.61;100.00;97877.28;5121166;27;20082;-78
2023/09/09 00:57:36;;;;;;;13.70;7.78;;;;;;;15.62;100.00;97875.44;5139625;27;20038;-77
2023/09/09 01:00:09;;;;;;;12.90;8.23;;;;;;;15.56;100.00;97876.78;5117987;27;20405;-77
2023/09/09 01:02:35;;;;;;;12.20;8.02;;;;;;;15.50;100.00;97866.47;5121487;27;20113;-77
2023/09/09 01:05:00;;;;;;;13.73;8.52;;;;;;;15.50;100.00;97865.59;5123351;27;20023;-78
2023/09/09 01:07:27;;;;;;;14.57;7.65;;;;;;;15.55;100.00;97872.34;5117734;27;20027;-78
2023/09/09 01:09:53;;;;;;;13.63;8.20;;;;;;;15.51;100.00;97860.06;5117684;27;20378;-77
2023/09/09 01:12:22;;;;;;;10.40;7.07;;;;;;;15.48;100.00;97860.31;5142434;27;20018;-77
2023/09/09 01:14:48;;;;;;;10.40;7.28;;;;;;;15.40;100.00;97854.63;5131680;27;20024;-77
2023/09/09 01:17:13;;;;;;;12.73;7.63;;;;;;;15.40;100.00;97851.06;5137268;27;20478;-77
2023/09/09 01:19:39;;;;;;;13.75;7.28;;;;;;;15.37;100.00;97857.56;5144437;27;20105;-77
2023/09/09 01:22:11;;;;;;;10.65;7.80;;;;;;;15.28;100.00;97857.41;5124615;27;20054;-77
2023/09/09 01:24:38;;;;;;;12.13;7.17;;;;;;;15.31;100.00;97858.03;5132175;27;20058;-77
2023/09/09 01:27:04;;;;;;;14.10;8.55;;;;;;;15.31;100.00;97860.72;5118817;27;20356;-77
2023/09/09 01:29:30;;;;;;;11.93;7.03;;;;;;;15.30;100.00;97860.81;5144390;27;20057;-78
2023/09/09 01:31:55;;;;;;;14.10;8.07;;;;;;;15.14;100.00;97847.63;5133822;27;20455;-77
2023/09/09 01:34:21;;;;;;;12.75;8.05;;;;;;;15.17;100.00;97856.34;5114244;27;20108;-78
2023/09/09 01:36:47;;;;;;;17.63;8.52;;;;;;;15.13;100.00;97859.41;5131586;27;20042;-78
2023/09/09 01:39:13;;;;;;;9.80;6.82;;;;;;;15.06;100.00;97848.25;5130867;27;20485;-78
2023/09/09 01:41:38;;;;;;;13.73;7.20;;;;;;;15.03;100.00;97861.06;5126261;27;20041;-78
2023/09/09 01:44:04;;;;;;;11.63;7.20;;;;;;;14.95;100.00;97853.53;5116668;27;20430;-77
2023/09/09 01:46:30;;;;;;;11.88;6.93;;;;;;;14.85;100.00;97851.66;5115819;27;20023;-78
2023/09/09 01:48:57;;;;;;;12.02;7.68;;;;;;;14.74;100.00;97856.97;5152316;27;20027;-77
2023/09/09 01:51:23;;;;;;;11.23;6.18;;;;;;;14.72;100.00;97858.94;5134503;27;20109;-77
2023/09/09 01:53:48;;;;;;;13.55;6.47;;;;;;;14.80;100.00;97859.22;5132803;27;20019;-76
2023/09/09 01:56:14;;;;;;;8.90;5.43;;;;;;;14.68;100.00;97852.03;5115564;27;20050;-77
2023/09/09 01:58:39;;;;;;;9.15;6.03;;;;;;;14.72;100.00;97848.16;5131674;27;20061;-78
2023/09/09 02:01:05;;;;;;;10.45;5.90;;;;;;;14.65;100.00;97855.81;5140427;27;20022;-79
2023/09/09 02:03:31;;;;;;;10.82;6.05;;;;;;;14.62;100.00;97846.16;5118795;27;20023;-77
2023/09/09 02:05:56;;;;;;;9.63;6.07;;;;;;;14.71;100.00;97851.81;5116387;27;20103;-78
2023/09/09 02:08:22;;;;;;;8.27;6.32;;;;;;;14.67;100.00;97845.81;5141333;27;20103;-77
2023/09/09 02:10:50;;;;;;;11.38;6.22;;;;;;;14.58;100.00;97852.72;5136414;27;20028;-77
2023/09/09 02:13:15;;;;;;;8.98;6.53;;;;;;;14.63;100.00;97850.56;5122995;27;20027;-78
2023/09/09 02:15:41;;;;;;;9.70;6.50;;;;;;;14.63;100.00;97852.41;5122373;27;20042;-78
2023/09/09 02:18:07;;;;;;;10.35;6.07;;;;;;;14.65;100.00;97853.13;5125722;27;20026;-78
2023/09/09 02:20:33;;;;;;;13.95;6.05;;;;;;;14.62;100.00;97848.84;5109552;27;20027;-78
2023/09/09 02:22:58;;;;;;;12.98;6.28;;;;;;;14.67;100.00;97858.41;5134026;27;20034;-78
2023/09/09 02:25:24;;;;;;;12.50;6.10;;;;;;;14.53;100.00;97844.13;5141737;27;20080;-78
2023/09/09 02:27:50;;;;;;;12.15;6.32;;;;;;;14.54;100.00;97855.75;5125119;27;20020;-78
2023/09/09 02:30:15;;;;;;;15.77;6.00;;;;;;;14.57;100.00;97856.41;5135343;27;20035;-78
2023/09/09 02:32:43;;;;;;;13.02;6.47;;;;;;;14.49;100.00;97855.22;5126082;27;20117;-78
2023/09/09 02:35:09;;;;;;;15.05;6.95;;;;;;;14.57;100.00;97869.88;5145841;27;20415;-78
2023/09/09 02:37:35;;;;;;;12.88;7.18;;;;;;;14.49;100.00;97858.78;5155766;27;20034;-78
2023/09/09 02:40:01;;;;;;;22.27;7.57;;;;;;;14.54;100.00;97872.78;5132138;27;20474;-78
2023/09/09 02:42:26;;;;;;;9.68;6.28;;;;;;;14.49;100.00;97871.38;5120455;27;20035;-78
2023/09/09 02:44:52;;;;;;;8.75;6.20;;;;;;;14.33;100.00;97858.19;5129736;27;20090;-78
2023/09/09 02:47:19;;;;;;;11.55;6.65;;;;;;;14.36;100.00;97863.34;5140368;27;20029;-78
2023/09/09 02:49:45;;;;;;;11.50;6.25;;;;;;;14.25;100.00;97860.50;5117658;27;20026;-78
2023/09/09 02:52:11;;;;;;;14.55;6.57;;;;;;;14.20;100.00;97856.44;5145058;27;20416;-78
2023/09/09 02:54:38;;;;;;;9.48;6.38;;;;;;;14.21;100.00;97866.25;5143901;27;20031;-78
2023/09/09 02:57:03;;;;;;;11.82;6.72;;;;;;;14.09;100.00;97867.94;5140241;27;20398;-78
2023/09/09 02:59:31;;;;;;;9.77;6.70;;;;;;;14.07;100.00;97864.50;5145367;27;20023;-78
2023/09/09 03:01:57;;;;;;;14.80;7.13;;;;;;;13.96;100.00;97859.03;5136772;27;20134;-78
2023/09/09 03:04:22;;;;;;;14.15;8.02;;;;;;;13.93;100.00;97860.13;5156814;27;20077;-77
2023/09/09 03:06:48;;;;;;;13.95;8.80;;;;;;;13.85;100.00;97850.84;5122696;27;20414;-78
2023/09/09 03:09:14;;;;;;;27.65;11.15;;;;;;;13.82;100.00;97859.13;5144206;27;20037;-78
2023/09/09 03:11:40;;;;;;;37.08;13.73;;;;;;;13.90;100.00;97871.09;5132309;27;20450;-78
2023/09/09 03:14:06;;;;;;;74.43;24.48;;;;;;;13.85;100.00;97873.22;5128379;27;20064;-78
2023/09/09 03:16:31;;;;;;;35.22;14.63;;;;;;;13.82;100.00;97867.19;5147367;27;20133;-77
2023/09/09 03:18:57;;;;;;;29.60;13.95;;;;;;;13.70;100.00;97862.69;5121538;27;20025;-77
2023/09/09 03:21:23;;;;;;;30.52;14.82;;;;;;;13.66;100.00;97869.25;5140636;27;20030;-78
2023/09/09 03:23:49;;;;;;;24.48;15.05;;;;;;;13.54;100.00;97871.81;5151277;27;20389;-78
2023/09/09 03:26:19;;;;;;;29.38;14.98;;;;;;;13.45;100.00;97867.06;5134325;27;20026;-78
2023/09/09 03:28:48;;;;;;;26.88;15.13;;;;;;;13.45;100.00;97875.13;5120545;27;20031;-77
2023/09/09 03:31:13;;;;;;;30.23;14.55;;;;;;;13.48;100.00;97874.03;5146665;27;20109;-78
2023/09/09 03:33:40;;;;;;;33.92;14.73;;;;;;;13.46;100.00;97871.47;5124057;27;20481;-78
2023/09/09 03:36:06;;;;;;;31.38;13.73;;;;;;;13.41;100.00;97873.59;5151996;27;20019;-80
2023/09/09 03:38:32;;;;;;;30.05;11.95;;;;;;;13.50;100.00;97883.72;5144059;27;20049;-78
2023/09/09 03:40:58;;;;;;;18.73;9.75;;;;;;;13.45;100.00;97869.75;5129522;27;20541;-78
2023/09/09 03:43:23;;;;;;;21.10;9.82;;;;;;;13.50;100.00;97874.81;5126815;27;20027;-78
2023/09/09 03:45:56;;;;;;;18.67;9.68;;;;;;;13.50;100.00;97889.09;5143685;27;20049;-76
2023/09/09 03:48:21;;;;;;;;;;;;;;;13.46;100.00;97884.06;5117532;27;20402;-77
2023/09/09 03:50:47;;;;;;;13.20;8.48;;;;;;;13.39;100.00;97888.97;5152594;27;19911;-78
2023/09/09 03:53:13;;;;;;;15.45;9.52;;;;;;;13.37;100.00;97892.75;5142401;27;20093;-78
2023/09/09 03:55:38;;;;;;;17.73;9.82;;;;;;;13.33;100.00;97891.22;5126168;27;20111;-78
2023/09/09 03:58:04;;;;;;;17.48;8.82;;;;;;;13.28;100.00;97888.84;5136237;27;20061;-78
2023/09/09 04:00:29;;;;;;;14.68;8.60;;;;;;;13.30;100.00;97891.41;5157113;27;20512;-78
2023/09/09 04:02:55;;;;;;;21.65;9.00;;;;;;;13.32;100.00;97887.66;5127792;27;20038;-78
2023/09/09 04:05:20;;;;;;;15.73;8.45;;;;;;;13.33;100.00;97896.59;5124913;27;20026;-78
2023/09/09 04:07:46;;;;;;;15.15;8.43;;;;;;;13.25;100.00;97886.38;5124738;27;20030;-78
2023/09/09 04:10:12;;;;;;;17.73;8.82;;;;;;;13.28;100.00;97888.84;5118449;27;20047;-76
2023/09/09 04:12:38;;;;;;;32.17;12.52;;;;;;;13.27;100.00;97903.25;5129795;27;20029;-79
2023/09/09 04:15:06;;;;;;;31.92;13.40;;;;;;;13.33;100.00;97897.44;5129147;27;20027;-78
2023/09/09 04:17:32;;;;;;;27.08;10.93;;;;;;;13.30;100.00;97902.16;5152021;27;20470;-78
2023/09/09 04:19:57;;;;;;;15.70;9.43;;;;;;;13.35;100.00;97903.56;5131025;27;20033;-77
2023/09/09 04:22:23;;;;;;;19.33;9.65;;;;;;;13.35;100.00;97894.69;5157125;27;20151;-78
2023/09/09 04:24:49;;;;;;;21.67;8.10;;;;;;;13.43;100.00;97898.56;5148702;27;20018;-79
2023/09/09 04:27:14;;;;;;;18.33;6.95;;;;;;;13.42;100.00;97898.66;5126185;27;20019;-78
2023/09/09 04:29:40;;;;;;;12.50;6.82;;;;;;;13.37;100.00;97888.22;5120452;27;20409;-78
2023/09/09 04:32:05;;;;;;;8.52;5.63;;;;;;;13.39;100.00;97880.91;5122429;27;20106;-78
2023/09/09 04:34:31;;;;;;;12.52;6.43;;;;;;;13.41;100.00;97881.66;5123710;27;20027;-80
2023/09/09 04:36:57;;;;;;;10.20;6.15;;;;;;;13.38;100.00;97889.09;5135353;27;19994;-78
2023/09/09 04:39:22;;;;;;;21.55;7.68;;;;;;;13.39;100.00;97897.03;5148327;27;20026;-80
2023/09/09 04:41:48;;;;;;;16.20;7.03;;;;;;;13.44;100.00;97902.94;5141673;27;20023;-78
2023/09/09 04:44:14;;;;;;;12.45;6.63;;;;;;;13.45;100.00;97904.69;5130865;27;20034;-79
2023/09/09 04:46:43;;;;;;;13.50;7.47;;;;;;;13.60;100.00;97900.09;5133045;27;20067;-79
2023/09/09 04:49:08;;;;;;;13.60;7.20;;;;;;;13.72;100.00;97904.63;5129063;27;20402;-79
2023/09/09 04:51:34;;;;;;;18.92;7.68;;;;;;;13.74;100.00;97891.94;5145313;27;20034;-78
2023/09/09 04:53:59;;;;;;;23.67;10.57;;;;;;;13.78;100.00;97887.22;5134440;27;20018;-79
2023/09/09 04:56:25;;;;;;;20.02;7.95;;;;;;;13.89;100.00;97898.09;5140747;27;20041;-80
2023/09/09 04:58:50;;;;;;;13.40;7.25;;;;;;;14.01;100.00;97894.53;5140269;27;20058;-78
2023/09/09 05:01:16;;;;;;;17.45;7.75;;;;;;;14.14;100.00;97892.72;5119242;27;20067;-79
2023/09/09 05:03:42;;;;;;;15.93;8.75;;;;;;;14.30;100.00;97890.66;5140816;27;20034;-78
2023/09/09 05:06:07;;;;;;;29.58;8.23;;;;;;;14.48;100.00;97900.16;5141569;27;20027;-78
2023/09/09 05:08:33;;;;;;;15.00;7.72;;;;;;;14.46;100.00;97899.38;5123774;27;20019;-82
2023/09/09 05:10:58;;;;;;;17.83;8.38;;;;;;;14.53;100.00;97903.34;5139685;27;20026;-76
2023/09/09 05:13:24;;;;;;;18.67;8.50;;;;;;;14.63;100.00;97896.34;5149215;27;20084;-76
2023/09/09 05:15:51;;;;;;;15.05;6.93;;;;;;;14.86;100.00;97900.03;5118093;27;20104;-75
2023/09/09 05:18:16;;;;;;;17.05;7.07;;;;;;;14.92;100.00;97885.28;5129934;27;20026;-76
2023/09/09 05:20:43;;;;;;;14.20;7.90;;;;;;;14.91;100.00;97887.09;5134669;27;20071;-76
2023/09/09 05:23:09;;;;;;;15.07;8.30;;;;;;;15.03;100.00;97882.63;5141479;27;20083;-75
2023/09/09 05:25:34;;;;;;;17.00;8.10;;;;;;;15.20;100.00;97882.22;5118640;27;20414;-75
2023/09/09 05:28:00;;;;;;;11.90;7.38;;;;;;;15.41;100.00;97883.28;5120023;27;20490;-75
2023/09/09 05:30:26;;;;;;;21.10;7.05;;;;;;;15.56;100.00;97879.47;5144089;27;21647;-77
2023/09/09 05:32:51;;;;;;;16.45;7.60;;;;;;;15.76;100.00;97883.31;5126433;27;20095;-77
2023/09/09 05:35:17;;;;;;;17.70;8.23;;;;;;;16.44;100.00;97872.47;5124441;27;20030;-76
2023/09/09 05:37:42;;;;;;;23.67;10.98;;;;;;;18.18;100.00;97865.03;5134140;27;20027;-78
2023/09/09 05:40:09;;;;;;;20.20;8.40;;;;;;;20.01;100.00;97851.69;5139756;27;20057;-79
2023/09/09 05:42:34;;;;;;;17.60;6.72;;;;;;;21.59;100.00;97844.19;5114975;27;20483;-76
2023/09/09 05:45:01;;;;;;;12.30;5.32;;;;;;;22.82;100.00;97832.13;5146705;27;20114;-76
2023/09/09 05:47:27;;;;;;;10.32;6.53;;;;;;;23.14;100.00;97831.38;5130622;27;20434;-78
2023/09/09 05:49:52;;;;;;;17.15;6.25;;;;;;;23.36;100.00;97828.03;5145038;27;20034;-77
2023/09/09 05:52:18;;;;;;;25.23;13.07;;;;;;;24.16;100.00;97829.13;5120208;27;20030;-78
2023/09/09 05:54:44;;;;;;;40.63;10.65;;;;;;;24.18;100.00;97833.38;5114776;27;20065;-79
2023/09/09 05:57:09;;;;;;;11.40;5.97;;;;;;;24.42;99.88;97840.72;5130345;27;20061;-76
2023/09/09 05:59:35;;;;;;;13.55;6.50;;;;;;;24.22;96.21;97834.75;5144717;27;20034;-77
2023/09/09 06:02:01;;;;;;;12.02;5.32;;;;;;;23.28;100.00;97847.13;5144885;27;20027;-76
2023/09/09 06:04:26;;;;;;;9.27;5.13;;;;;;;23.19;100.00;97839.94;5148354;27;20031;-77
2023/09/09 06:06:52;;;;;;;44.17;26.20;;;;;;;23.68;100.00;97841.78;5143739;27;20034;-77
2023/09/09 06:09:17;;;;;;;9.55;6.13;;;;;;;23.45;100.00;97846.16;5144303;27;20074;-76
2023/09/09 06:11:43;;;;;;;10.38;5.22;;;;;;;23.25;100.00;97854.78;5139336;27;20109;-76
2023/09/09 06:14:08;;;;;;;11.27;6.35;;;;;;;23.50;100.00;97848.41;5138897;27;20023;-76
2023/09/09 06:16:35;;;;;;;11.95;6.40;;;;;;;24.24;100.00;97849.09;5130801;27;20047;-76
2023/09/09 06:19:02;;;;;;;11.88;5.75;;;;;;;24.99;98.69;97846.03;5127058;28;20051;-77
2023/09/09 06:21:28;;;;;;;27.08;6.95;;;;;;;25.28;93.65;97846.22;5136704;27;20031;-77
2023/09/09 06:23:54;;;;;;;9.45;6.13;;;;;;;25.51;91.04;97843.53;5152004;27;20023;-78
2023/09/09 06:26:20;;;;;;;28.48;7.75;;;;;;;25.57;90.31;97851.88;5126044;27;20405;-78
2023/09/09 06:28:45;;;;;;;12.00;6.45;;;;;;;26.00;87.00;97847.63;5125597;27;20031;-78
2023/09/09 06:31:11;;;;;;;14.63;6.38;;;;;;;25.84;88.58;97853.25;5125959;28;20039;-78
2023/09/09 06:33:37;;;;;;;16.15;5.18;;;;;;;25.70;86.84;97851.28;5144470;27;20084;-76
2023/09/09 06:36:02;;;;;;;13.43;5.68;;;;;;;26.62;82.49;97853.75;5145479;27;20095;-78
2023/09/09 06:38:28;;;;;;;14.60;6.65;;;;;;;26.46;81.43;97844.81;5123549;27;20092;-78
2023/09/09 06:40:53;;;;;;;9.65;5.50;;;;;;;26.64;80.25;97837.94;5130849;28;20110;-78
2023/09/09 06:43:20;;;;;;;17.30;6.63;;;;;;;26.38;81.95;97854.00;5131172;27;20035;-78
2023/09/09 06:45:46;;;;;;;14.77;6.63;;;;;;;26.73;83.04;97849.69;5136863;27;20029;-78
2023/09/09 06:48:16;;;;;;;13.07;5.28;;;;;;;27.85;72.45;97839.09;5132713;27;20474;-77
2023/09/09 06:50:46;;;;;;;7.10;5.07;;;;;;;27.86;71.24;97835.31;5142817;27;20027;-78
2023/09/09 06:53:12;;;;;;;11.15;5.13;;;;;;;28.24;68.91;97835.88;5143557;27;20409;-77
2023/09/09 06:55:38;;;;;;;9.75;5.97;;;;;;;27.91;70.58;97837.44;5124761;27;20026;-78
2023/09/09 06:58:04;;;;;;;10.93;6.07;;;;;;;28.44;65.75;97830.53;5125611;27;20026;-78
2023/09/09 07:00:29;;;;;;;9.23;4.88;;;;;;;29.28;60.87;97837.69;5142410;27;20470;-78
2023/09/09 07:02:55;;;;;;;7.97;5.57;;;;;;;29.16;60.14;97828.25;5142888;27;20109;-78
2023/09/09 07:05:20;;;;;;;20.75;5.80;;;;;;;28.46;62.37;97832.03;5142560;27;20466;-78
2023/09/09 07:07:46;;;;;;;15.23;5.25;;;;;;;28.15;65.57;97834.31;5130989;27;20031;-78
2023/09/09 07:10:12;;;;;;;70.20;8.82;;;;;;;28.50;64.38;97833.34;5135441;27;20520;-79
2023/09/09 07:12:38;;;;;;;15.43;7.38;;;;;;;28.69;63.49;97833.72;5137625;27;20038;-78
2023/09/09 07:15:04;;;;;;;23.58;6.70;;;;;;;28.74;62.14;97833.94;5130562;27;20034;-78
2023/09/09 07:17:30;;;;;;;12.38;5.63;;;;;;;27.93;63.41;97833.44;5128063;27;20422;-78
2023/09/09 07:19:56;;;;;;;7.55;5.78;;;;;;;28.00;66.02;97839.00;5135504;27;20023;-78
2023/09/09 07:22:21;;;;;;;21.63;6.38;;;;;;;27.27;69.34;97842.84;5135608;27;20027;-78
2023/09/09 07:24:47;;;;;;;11.55;6.05;;;;;;;28.14;65.98;97840.88;5136747;27;20069;-78
2023/09/09 07:27:12;;;;;;;13.95;5.70;;;;;;;27.55;67.55;97839.41;5140703;27;20025;-78
2023/09/09 07:29:38;;;;;;;15.55;6.10;;;;;;;26.25;78.35;97848.28;5128244;27;20035;-78
2023/09/09 07:32:04;;;;;;;14.07;6.25;;;;;;;26.38;79.89;97854.00;5116871;27;20031;-78
2023/09/09 07:34:30;;;;;;;6.35;5.13;;;;;;;27.70;71.74;97842.94;5149446;27;20555;-78
2023/09/09 07:36:55;;;;;;;29.48;5.90;;;;;;;28.60;64.26;97834.88;5127603;27;20037;-78
2023/09/09 07:39:21;;;;;;;10.60;4.93;;;;;;;29.43;57.85;97826.47;5129927;27;20022;-78
2023/09/09 07:41:46;;;;;;;58.25;6.53;;;;;;;30.91;52.21;97821.50;5145726;27;20027;-78
2023/09/09 07:44:12;;;;;;;12.27;4.93;;;;;;;30.30;54.17;97830.03;5124772;27;20023;-78
2023/09/09 07:46:37;;;;;;;18.83;4.90;;;;;;;29.00;57.44;97831.34;5127449;27;20026;-78
2023/09/09 07:49:03;;;;;;;17.02;5.25;;;;;;;29.40;55.60;97830.50;5128124;27;20106;-78
2023/09/09 07:51:29;;;;;;;8.00;4.88;;;;;;;30.74;50.21;97817.50;5154428;27;20062;-78
2023/09/09 07:53:54;;;;;;;7.05;3.80;;;;;;;31.59;47.95;97817.25;5138212;27;20063;-77
2023/09/09 07:56:20;;;;;;;10.00;4.72;;;;;;;31.83;47.38;97815.63;5128349;27;20031;-78
2023/09/09 07:58:45;;;;;;;12.18;4.90;;;;;;;31.33;48.07;97823.72;5143658;27;20027;-77
2023/09/09 08:01:12;;;;;;;10.98;4.75;;;;;;;30.60;48.00;97817.53;5120155;27;20023;-77
2023/09/09 08:03:38;;;;;;;7.80;3.75;;;;;;;30.10;49.45;97819.00;5133136;27;20027;-76
2023/09/09 08:06:06;;;;;;;10.57;4.25;;;;;;;30.97;47.48;97813.25;5124320;27;20030;-78
2023/09/09 08:08:35;;;;;;;9.90;3.67;;;;;;;29.71;48.48;97812.56;5150123;27;20060;-76
2023/09/09 08:11:02;;;;;;;8.20;3.38;;;;;;;29.77;49.97;97820.84;5142877;27;20053;-77
2023/09/09 08:13:28;;;;;;;7.57;3.45;;;;;;;30.87;47.83;97810.03;5128837;27;20495;-78
2023/09/09 08:15:53;;;;;;;10.15;3.40;;;;;;;31.96;45.21;97807.22;5142348;27;20089;-77
2023/09/09 08:18:19;;;;;;;9.73;3.80;;;;;;;30.98;44.75;97801.09;5134849;27;20026;-76
2023/09/09 08:20:49;;;;;;;8.45;3.45;;;;;;;29.23;49.48;97809.81;5127371;27;20042;-77
2023/09/09 08:23:15;;;;;;;7.05;3.38;;;;;;;29.46;47.90;97792.97;5114847;27;20064;-77
2023/09/09 08:25:40;;;;;;;6.13;3.47;;;;;;;30.94;44.79;97791.56;5151629;27;20047;-77
2023/09/09 08:28:06;;;;;;;7.10;3.47;;;;;;;30.50;45.14;97794.16;5126553;27;20433;-78
2023/09/09 08:30:31;;;;;;;4.93;3.60;;;;;;;30.25;45.32;97791.19;5127455;27;20338;-77
2023/09/09 08:32:57;;;;;;;6.22;3.88;;;;;;;31.45;44.03;97788.78;5134663;27;20109;-77
2023/09/09 08:35:26;;;;;;;10.05;3.13;;;;;;;31.78;42.09;97773.94;5122364;27;20111;-78
2023/09/09 08:37:52;;;;;;;8.05;3.85;;;;;;;31.23;41.73;97770.81;5125150;27;20389;-77
2023/09/09 08:40:18;;;;;;;9.02;3.10;;;;;;;31.48;40.74;97766.19;5142556;27;20015;-77
2023/09/09 08:43:09;;;;;;;5.78;3.00;;;;;;;32.87;39.23;97764.03;5140974;27;20417;-77
2023/09/09 08:45:44;;;;;;;9.05;3.40;;;;;;;32.37;39.61;97766.00;5142720;27;20025;-77
2023/09/09 08:48:13;;;;;;;13.05;3.22;;;;;;;34.44;36.75;97755.38;5128055;27;20030;-77
2023/09/09 08:50:39;;;;;;;5.03;2.83;;;;;;;36.08;33.72;97731.63;5135301;27;20122;-77
2023/09/09 08:53:08;;;;;;;6.05;2.80;;;;;;;36.42;32.44;97734.13;5123891;27;20478;-77
2023/09/09 08:55:34;;;;;;;4.93;2.80;;;;;;;32.12;36.40;97743.84;5140751;27;20041;-77
2023/09/09 08:58:00;;;;;;;3.95;2.63;;;;;;;32.71;36.61;97737.75;5131375;27;20031;-77
2023/09/09 09:00:34;;;;;;;7.28;2.63;;;;;;;32.77;36.73;97735.13;5136535;27;20118;-77
2023/09/09 09:03:04;;;;;;;4.15;2.95;;;;;;;34.20;35.73;97746.19;5136653;27;20114;-77
2023/09/09 09:05:31;;;;;;;3.45;3.10;;;;;;;35.08;34.07;97739.59;5135232;27;20094;-77
2023/09/09 09:07:56;;;;;;;4.55;2.83;;;;;;;35.96;32.30;97730.81;5149587;27;20433;-77
2023/09/09 09:10:23;;;;;;;3.13;2.58;;;;;;;37.00;31.65;97729.16;5127866;27;20060;-77
2023/09/09 09:12:48;;;;;;;5.07;2.80;;;;;;;35.72;32.54;97730.09;5126246;27;20058;-77
2023/09/09 09:15:14;;;;;;;8.13;2.80;;;;;;;33.75;34.78;97737.47;5129622;27;20454;-78
2023/09/09 09:17:41;;;;;;;5.35;2.65;;;;;;;34.34;34.15;97738.44;5148868;27;20019;-78
2023/09/09 09:20:28;;;;;;;11.15;3.30;;;;;;;35.08;33.49;97731.25;5126776;27;20019;-78
2023/09/09 09:23:06;;;;;;;9.27;3.13;;;;;;;35.69;32.37;97717.50;5140788;27;20096;-78
2023/09/09 09:25:45;;;;;;;3.85;2.78;;;;;;;35.05;33.07;97717.84;5127175;27;20118;-77
2023/09/09 09:28:15;;;;;;;6.57;2.90;;;;;;;34.21;34.50;97720.06;5130296;27;20034;-77
2023/09/09 09:30:41;;;;;;;6.13;2.80;;;;;;;34.75;33.73;97707.75;5144166;27;20035;-77
2023/09/09 09:33:07;;;;;;;3.95;2.70;;;;;;;34.87;33.23;97715.22;5125381;27;20022;-78
2023/09/09 09:35:35;;;;;;;4.55;3.13;;;;;;;35.26;33.46;97718.03;5134334;27;20091;-77
2023/09/09 09:38:09;;;;;;;5.50;2.60;;;;;;;33.79;34.37;97707.31;5143476;27;20106;-79
2023/09/09 09:40:36;;;;;;;5.45;2.95;;;;;;;32.78;34.82;97692.50;5139944;27;20027;-79
2023/09/09 09:43:02;;;;;;;10.85;3.10;;;;;;;32.96;34.42;97698.88;5147908;27;20035;-79
2023/09/09 09:45:29;;;;;;;5.22;2.03;;;;;;;33.99;33.50;97693.13;5121395;27;20150;-79
2023/09/09 09:47:58;;;;;;;9.20;2.70;;;;;;;35.26;32.39;97692.16;5115585;27;20108;-79
2023/09/09 09:50:30;;;;;;;8.38;2.75;;;;;;;34.98;30.83;97678.22;5122275;27;20023;-79
2023/09/09 09:53:03;;;;;;;3.63;2.47;;;;;;;34.86;29.58;97667.09;5145099;27;20031;-79
2023/09/09 09:55:30;;;;;;;6.05;2.78;;;;;;;34.31;30.55;97670.31;5124868;27;20062;-80
2023/09/09 09:57:58;;;;;;;4.22;2.42;;;;;;;35.20;29.32;97670.88;5129238;27;20053;-79
2023/09/09 10:00:24;;;;;;;8.50;2.80;;;;;;;35.18;29.47;97664.72;5112314;27;20027;-79
2023/09/09 10:02:53;;;;;;;6.35;2.05;;;;;;;36.16;27.23;97653.16;5120962;27;20030;-80
2023/09/09 10:05:21;;;;;;;4.82;4.32;;;;;;;36.00;27.18;97646.47;5117060;27;20027;-80
2023/09/09 10:07:51;;;;;;;4.03;2.08;;;;;;;37.08;25.72;97643.03;5139006;27;20156;-79
2023/09/09 10:10:19;;;;;;;8.85;2.40;;;;;;;36.88;26.53;97652.00;5146355;27;20110;-80
2023/09/09 10:12:50;;;;;;;6.25;2.10;;;;;;;36.88;27.17;97642.78;5121930;28;20238;-79
2023/09/09 10:15:16;;;;;;;2.67;1.80;;;;;;;35.22;27.33;97640.91;5147868;27;20055;-79
2023/09/09 10:17:43;;;;;;;3.78;2.17;;;;;;;35.69;26.82;97633.97;5138149;27;20031;-79
2023/09/09 10:20:11;;;;;;;3.95;2.45;;;;;;;35.18;27.15;97631.34;5114788;27;20045;-78
2023/09/09 10:22:36;;;;;;;3.35;1.92;;;;;;;35.87;26.34;97628.16;5142223;27;20027;-79
2023/09/09 10:25:05;;;;;;;4.35;1.83;;;;;;;35.85;26.52;97627.56;5141160;27;20035;-80
2023/09/09 10:27:32;;;;;;;3.20;2.30;;;;;;;35.70;26.69;97618.97;5123266;27;20466;-79
2023/09/09 10:29:58;;;;;;;18.73;9.57;;;;;;;34.08;28.59;97622.25;5127715;28;20023;-83
2023/09/09 10:32:25;;;;;;;4.63;1.80;;;;;;;34.83;27.01;97612.81;5125942;27;20035;-82
2023/09/09 10:34:52;;;;;;;5.18;2.22;;;;;;;35.62;26.78;97624.13;5126637;27;20485;-80
2023/09/09 10:37:18;;;;;;;7.30;3.25;;;;;;;37.02;25.55;97615.34;5123282;27;20071;-81
2023/09/09 10:39:47;;;;;;;3.75;1.75;;;;;;;36.35;25.43;97610.81;5113086;28;20031;-84
2023/09/09 10:42:13;;;;;;;4.05;2.00;;;;;;;36.01;26.32;97608.31;5130888;27;20470;-82
2023/09/09 10:44:38;;;;;;;8.32;2.10;;;;;;;34.91;26.86;97611.59;5144969;27;20041;-81
2023/09/09 10:47:07;;;;;;;4.05;2.33;;;;;;;37.14;24.69;97604.84;5121310;27;20343;-80
2023/09/09 10:49:33;;;;;;;3.67;2.10;;;;;;;38.35;24.10;97611.56;5134538;27;20027;-79
2023/09/09 10:51:58;;;;;;;5.22;2.20;;;;;;;39.44;23.03;97597.47;5147867;27;20434;-80
2023/09/09 10:54:26;;;;;;;4.25;1.90;;;;;;;39.65;22.77;97590.78;5125360;27;20211;-79
2023/09/09 10:56:53;;;;;;;9.85;2.47;;;;;;;37.60;24.32;97607.03;5138505;27;20026;-79
2023/09/09 10:59:23;;;;;;;3.78;1.90;;;;;;;37.05;24.58;97596.13;5134604;27;20023;-78
2023/09/09 11:02:12;;;;;;;6.72;1.85;;;;;;;37.59;24.01;97594.19;5130499;27;20027;-79
2023/09/09 11:04:38;;;;;;;4.15;1.90;;;;;;;38.97;22.41;97587.28;5112136;27;20090;-80
2023/09/09 11:07:08;;;;;;;3.60;2.35;;;;;;;37.51;23.78;97589.06;5122836;27;20027;-80
2023/09/09 11:09:34;;;;;;;11.10;2.25;;;;;;;36.56;24.22;97581.28;5128150;27;20022;-79
2023/09/09 11:12:11;;;;;;;2.90;2.20;;;;;;;36.61;23.47;97581.34;5154649;27;20478;-79
2023/09/09 11:14:36;;;;;;;8.57;2.35;;;;;;;38.30;21.97;97566.78;5135694;27;20082;-80
2023/09/09 11:17:02;;;;;;;2.95;1.90;;;;;;;38.43;22.16;97560.69;5130212;27;20125;-80
2023/09/09 11:19:29;;;;;;;7.45;2.83;;;;;;;38.15;22.33;97569.50;5146087;27;20053;-80
2023/09/09 11:21:55;;;;;;;3.38;2.17;;;;;;;39.44;20.89;97553.47;5135559;27;20019;-80